Hawthorn, Pennsylvania
Current Conditions -  °F | °C
As of 5:42 AM on Sunday 21 Dec 2014 (Local Time) from KDUJ Reporting Station
Overcast Overcast  
Wind Chill: 25°   Ceiling: 1300
Heat Index: 25°   Visibility: 10mi
Dew Point: 21°   Wind: 3mph
Humidity: 85%   Direction: 270°W
Pressure: 30.22"   Gusts: NA
Location:  41.02°N, 79.27°W
Report Text: KDUJ 211042Z AUTO 27003KT 10SM OVC013 M04/M06 A3022 RMK AO2 T10391061
Loading
Personal Weather Stations






























Interactive Weather Map New forecast layout! Learn more

10-Day Weather Forecast

Advertisements
Track Severe Weather on mobile